createdAt,value
2023-02-24T00:00:02.667Z,1003.91
2023-02-24T00:01:02.445Z,1003.88
2023-02-24T00:02:03.090Z,1003.85
2023-02-24T00:03:03.829Z,1003.88
2023-02-24T00:04:03.484Z,1003.89
2023-02-24T00:05:03.307Z,1003.84
2023-02-24T00:06:03.461Z,1003.81
2023-02-24T00:07:03.338Z,1003.91
2023-02-24T00:08:03.484Z,1003.89
2023-02-24T00:09:03.328Z,1003.88
2023-02-24T00:10:03.579Z,1003.83
2023-02-24T00:11:03.922Z,1003.87
2023-02-24T00:12:03.377Z,1003.84
2023-02-24T00:13:03.010Z,1003.80
2023-02-24T00:14:03.245Z,1003.84
2023-02-24T00:15:03.117Z,1003.76
2023-02-24T00:16:03.322Z,1003.70
2023-02-24T00:17:03.706Z,1003.67
2023-02-24T00:18:03.122Z,1003.69
2023-02-24T00:19:03.608Z,1003.67
2023-02-24T00:20:03.347Z,1003.63
2023-02-24T00:21:03.307Z,1003.59
2023-02-24T00:22:03.649Z,1003.62
2023-02-24T00:23:03.237Z,1003.60
2023-02-24T00:24:03.276Z,1003.58
2023-02-24T00:25:03.758Z,1003.53
2023-02-24T00:26:03.309Z,1003.52
2023-02-24T00:27:03.201Z,1003.50
2023-02-24T00:28:02.933Z,1003.52
2023-02-24T00:29:03.068Z,1003.47
2023-02-24T00:30:02.947Z,1003.46
2023-02-24T00:31:02.958Z,1003.44
2023-02-24T00:32:03.701Z,1003.42
2023-02-24T00:33:03.333Z,1003.42
2023-02-24T00:34:03.597Z,1003.36
2023-02-24T00:35:03.466Z,1003.39
2023-02-24T00:36:03.095Z,1003.36
2023-02-24T00:37:02.820Z,1003.36
2023-02-24T00:38:02.343Z,1003.29
2023-02-24T00:39:02.795Z,1003.29
2023-02-24T00:40:02.859Z,1003.27
2023-02-24T00:41:02.941Z,1003.32
2023-02-24T00:42:02.485Z,1003.26
2023-02-24T00:43:02.903Z,1003.28
2023-02-24T00:44:02.784Z,1003.30
2023-02-24T00:45:02.625Z,1003.25
2023-02-24T00:46:02.999Z,1003.27
2023-02-24T00:47:03.069Z,1003.24
2023-02-24T00:48:02.818Z,1003.22
2023-02-24T00:49:02.993Z,1003.23
2023-02-24T00:50:03.213Z,1003.22
2023-02-24T00:51:02.888Z,1003.19
2023-02-24T00:52:03.378Z,1003.15
2023-02-24T00:53:03.460Z,1003.18
2023-02-24T00:54:03.170Z,1003.15
2023-02-24T00:55:03.056Z,1003.16
2023-02-24T00:56:02.950Z,1003.20
2023-02-24T00:57:03.803Z,1003.20
2023-02-24T00:58:03.476Z,1003.19
2023-02-24T00:59:03.718Z,1003.16
2023-02-24T01:00:03.351Z,1003.17
2023-02-24T01:01:03.288Z,1003.12
2023-02-24T01:02:03.268Z,1003.13
2023-02-24T01:03:02.783Z,1003.13
2023-02-24T01:04:03.185Z,1003.11
2023-02-24T01:05:02.835Z,1003.07
2023-02-24T01:06:03.236Z,1003.08
2023-02-24T01:07:03.152Z,1003.04
2023-02-24T01:08:03.544Z,1003.06
2023-02-24T01:09:03.200Z,1003.02
2023-02-24T01:10:03.076Z,1003.01
2023-02-24T01:11:03.449Z,1002.96
2023-02-24T01:12:03.551Z,1002.96
2023-02-24T01:13:03.491Z,1002.90
2023-02-24T01:14:03.230Z,1002.86
2023-02-24T01:15:03.146Z,1002.93
2023-02-24T01:16:03.593Z,1002.95
2023-02-24T01:17:02.681Z,1002.91
2023-02-24T01:18:02.766Z,1002.88
2023-02-24T01:19:02.667Z,1002.85
2023-02-24T01:20:02.300Z,1002.80
2023-02-24T01:21:02.302Z,1002.83
2023-02-24T01:22:03.138Z,1002.81
2023-02-24T01:23:03.203Z,1002.80
2023-02-24T01:24:02.840Z,1002.79
2023-02-24T01:25:03.147Z,1002.73
2023-02-24T01:26:02.797Z,1002.74
2023-02-24T01:27:03.096Z,1002.75
2023-02-24T01:28:03.224Z,1002.65
2023-02-24T01:29:03.739Z,1002.63
2023-02-24T01:30:03.640Z,1002.64
2023-02-24T01:31:03.397Z,1002.63
2023-02-24T01:32:03.501Z,1002.59
2023-02-24T01:33:02.982Z,1002.59
2023-02-24T01:34:03.233Z,1002.59
2023-02-24T01:35:03.214Z,1002.58
2023-02-24T01:36:02.789Z,1002.57
2023-02-24T01:37:03.250Z,1002.59
2023-02-24T01:38:03.335Z,1002.57
2023-02-24T01:39:03.465Z,1002.54
2023-02-24T01:40:03.393Z,1002.52
2023-02-24T01:41:03.397Z,1002.52
2023-02-24T01:42:02.659Z,1002.56
2023-02-24T01:43:02.968Z,1002.52
2023-02-24T01:44:03.034Z,1002.50
2023-02-24T01:45:02.850Z,1002.50
2023-02-24T01:46:02.551Z,1002.52
2023-02-24T01:47:03.288Z,1002.51
2023-02-24T01:48:02.974Z,1002.47
2023-02-24T01:49:03.355Z,1002.43
2023-02-24T01:50:02.823Z,1002.44
2023-02-24T01:51:03.165Z,1002.47
2023-02-24T01:52:02.761Z,1002.37
2023-02-24T01:53:02.430Z,1002.41
2023-02-24T01:54:02.376Z,1002.35
2023-02-24T01:55:02.731Z,1002.34
2023-02-24T01:56:02.717Z,1002.35
2023-02-24T01:57:02.856Z,1002.40
2023-02-24T01:58:03.154Z,1002.33
2023-02-24T01:59:03.109Z,1002.38
2023-02-24T02:00:03.388Z,1002.37
2023-02-24T02:01:03.307Z,1002.34
2023-02-24T02:02:02.565Z,1002.34
2023-02-24T02:03:03.052Z,1002.36
2023-02-24T02:04:02.798Z,1002.43
2023-02-24T02:05:02.870Z,1002.37
2023-02-24T02:06:02.727Z,1002.41
2023-02-24T02:07:03.157Z,1002.38
2023-02-24T02:08:02.902Z,1002.34
2023-02-24T02:09:03.424Z,1002.33
2023-02-24T02:10:02.783Z,1002.35
2023-02-24T02:11:02.790Z,1002.33
2023-02-24T02:12:02.350Z,1002.34
2023-02-24T02:13:02.141Z,1002.31
2023-02-24T02:14:02.775Z,1002.33
2023-02-24T02:15:02.325Z,1002.33
2023-02-24T02:16:02.373Z,1002.32
2023-02-24T02:17:02.918Z,1002.34
2023-02-24T02:18:02.914Z,1002.32
2023-02-24T02:19:02.847Z,1002.28
2023-02-24T02:20:02.832Z,1002.25
2023-02-24T02:21:03.263Z,1002.29
2023-02-24T02:22:03.087Z,1002.27
2023-02-24T02:23:03.550Z,1002.20
2023-02-24T02:24:03.424Z,1002.21
2023-02-24T02:25:03.107Z,1002.23
2023-02-24T02:26:02.983Z,1002.15
2023-02-24T02:27:02.416Z,1002.16
2023-02-24T02:28:02.582Z,1002.17
2023-02-24T02:29:02.512Z,1002.13
2023-02-24T02:30:02.511Z,1002.13
2023-02-24T02:31:02.588Z,1002.12
2023-02-24T02:32:02.744Z,1002.13
2023-02-24T02:33:03.024Z,1002.17
2023-02-24T02:34:02.753Z,1002.12
2023-02-24T02:35:02.560Z,1002.10
2023-02-24T02:36:02.794Z,1002.10
2023-02-24T02:37:03.095Z,1002.12
2023-02-24T02:38:03.413Z,1002.10
2023-02-24T02:39:02.841Z,1002.09
2023-02-24T02:40:03.185Z,1002.12
2023-02-24T02:41:03.197Z,1002.04
2023-02-24T02:42:02.860Z,1002.10
2023-02-24T02:43:02.419Z,1002.09
2023-02-24T02:44:02.511Z,1002.09
2023-02-24T02:45:02.434Z,1002.10
2023-02-24T02:46:02.705Z,1002.08
2023-02-24T02:47:02.593Z,1002.20
2023-02-24T02:48:02.475Z,1002.15
2023-02-24T02:49:02.675Z,1002.16
2023-02-24T02:50:02.595Z,1002.12
2023-02-24T02:51:02.401Z,1002.18
2023-02-24T02:52:03.000Z,1002.15
2023-02-24T02:53:03.138Z,1002.15
2023-02-24T02:54:03.541Z,1002.13
2023-02-24T02:55:03.186Z,1002.15
2023-02-24T02:56:03.215Z,1002.10
2023-02-24T02:57:02.398Z,1002.12
2023-02-24T02:58:02.258Z,1002.07
2023-02-24T02:59:02.127Z,1002.07
2023-02-24T03:00:02.484Z,1002.10
2023-02-24T03:01:02.407Z,1002.01
2023-02-24T03:02:03.045Z,1002.01
2023-02-24T03:03:02.869Z,1001.99
2023-02-24T03:04:02.849Z,1002.03
2023-02-24T03:05:03.268Z,1002.03
2023-02-24T03:06:02.866Z,1002.04
2023-02-24T03:07:03.098Z,1002.00
2023-02-24T03:08:02.637Z,1002.02
2023-02-24T03:09:02.868Z,1001.97
2023-02-24T03:10:02.775Z,1001.97
2023-02-24T03:11:03.178Z,1001.88
2023-02-24T03:12:03.196Z,1001.87
2023-02-24T03:13:02.930Z,1001.89
2023-02-24T03:14:02.882Z,1001.86
2023-02-24T03:15:02.824Z,1001.84
2023-02-24T03:16:03.238Z,1001.81
2023-02-24T03:17:02.415Z,1001.80
2023-02-24T03:18:02.892Z,1001.75
2023-02-24T03:19:02.997Z,1001.72
2023-02-24T03:20:02.570Z,1001.73
2023-02-24T03:21:02.925Z,1001.70
2023-02-24T03:22:03.093Z,1001.66
2023-02-24T03:23:02.850Z,1001.63
2023-02-24T03:24:03.132Z,1001.65
2023-02-24T03:25:03.038Z,1001.61
2023-02-24T03:26:02.697Z,1001.61
2023-02-24T03:27:02.355Z,1001.63
2023-02-24T03:28:02.660Z,1001.64
2023-02-24T03:29:02.524Z,1001.68
2023-02-24T03:30:02.549Z,1001.69
2023-02-24T03:31:02.504Z,1001.60
2023-02-24T03:32:03.146Z,1001.60
2023-02-24T03:33:02.743Z,1001.62
2023-02-24T03:34:02.410Z,1001.63
2023-02-24T03:35:02.608Z,1001.61
2023-02-24T03:36:02.643Z,1001.57
2023-02-24T03:37:03.005Z,1001.62
2023-02-24T03:38:02.770Z,1001.57
2023-02-24T03:39:03.235Z,1001.58
2023-02-24T03:40:03.320Z,1001.61
2023-02-24T03:41:03.296Z,1001.60
2023-02-24T03:42:03.243Z,1001.59
2023-02-24T03:43:02.882Z,1001.63
2023-02-24T03:44:03.149Z,1001.58
2023-02-24T03:45:03.018Z,1001.57
2023-02-24T03:46:02.964Z,1001.60
2023-02-24T03:47:02.399Z,1001.56
2023-02-24T03:48:02.742Z,1001.58
2023-02-24T03:49:02.935Z,1001.53
2023-02-24T03:50:02.458Z,1001.56
2023-02-24T03:51:02.485Z,1001.51
2023-02-24T03:52:03.453Z,1001.54
2023-02-24T03:53:03.283Z,1001.54
2023-02-24T03:54:03.288Z,1001.53
2023-02-24T03:55:03.254Z,1001.55
2023-02-24T03:56:02.905Z,1001.52
2023-02-24T03:57:02.899Z,1001.54
2023-02-24T03:58:03.073Z,1001.58
2023-02-24T03:59:02.943Z,1001.54
2023-02-24T04:00:03.073Z,1001.58
2023-02-24T04:01:03.164Z,1001.53
2023-02-24T04:02:02.431Z,1001.54
2023-02-24T04:03:02.549Z,1001.53
2023-02-24T04:04:02.221Z,1001.56
2023-02-24T04:05:02.720Z,1001.58
2023-02-24T04:06:02.313Z,1001.52
2023-02-24T04:07:02.639Z,1001.57
2023-02-24T04:08:02.854Z,1001.45
2023-02-24T04:09:02.445Z,1001.45
2023-02-24T04:10:02.482Z,1001.42
2023-02-24T04:11:02.905Z,1001.40
2023-02-24T04:12:02.113Z,1001.36
2023-02-24T04:13:02.261Z,1001.38
2023-02-24T04:14:02.024Z,1001.43
2023-02-24T04:15:01.933Z,1001.36
2023-02-24T04:16:02.101Z,1001.39
2023-02-24T04:17:02.120Z,1001.32
2023-02-24T04:18:02.645Z,1001.37
2023-02-24T04:19:02.080Z,1001.37
2023-02-24T04:20:02.165Z,1001.29
2023-02-24T04:21:02.002Z,1001.38
2023-02-24T04:22:02.259Z,1001.36
2023-02-24T04:23:02.480Z,1001.38
2023-02-24T04:24:02.475Z,1001.42
2023-02-24T04:25:02.298Z,1001.43
2023-02-24T04:26:02.054Z,1001.48
2023-02-24T04:27:03.083Z,1001.39
2023-02-24T04:28:02.802Z,1001.45
2023-02-24T04:29:02.804Z,1001.45
2023-02-24T04:30:02.703Z,1001.39
2023-02-24T04:31:02.685Z,1001.41
2023-02-24T04:32:02.343Z,1001.38
2023-02-24T04:33:02.640Z,1001.40
2023-02-24T04:34:02.096Z,1001.38
2023-02-24T04:35:02.196Z,1001.36
2023-02-24T04:36:02.427Z,1001.35
2023-02-24T04:37:02.268Z,1001.30
2023-02-24T04:38:02.747Z,1001.33
2023-02-24T04:39:02.335Z,1001.32
2023-02-24T04:40:02.523Z,1001.36
2023-02-24T04:41:02.754Z,1001.34
2023-02-24T04:42:02.224Z,1001.34
2023-02-24T04:43:02.604Z,1001.29
2023-02-24T04:44:02.576Z,1001.31
2023-02-24T04:45:02.898Z,1001.30
2023-02-24T04:46:02.709Z,1001.31
2023-02-24T04:47:02.634Z,1001.25
2023-02-24T04:48:02.678Z,1001.29
2023-02-24T04:49:03.041Z,1001.23
2023-02-24T04:50:02.439Z,1001.23
2023-02-24T04:51:02.809Z,1001.22
2023-02-24T04:52:02.947Z,1001.23
2023-02-24T04:53:02.961Z,1001.18
2023-02-24T04:54:03.046Z,1001.19
2023-02-24T04:55:02.635Z,1001.18
2023-02-24T04:56:02.696Z,1001.24
2023-02-24T04:57:02.355Z,1001.23
2023-02-24T04:58:02.539Z,1001.13
2023-02-24T04:59:02.105Z,1001.16
2023-02-24T05:00:01.903Z,1001.20
2023-02-24T05:01:02.252Z,1001.16
2023-02-24T05:02:02.432Z,1001.14
2023-02-24T05:03:02.443Z,1001.15
2023-02-24T05:04:02.059Z,1001.16
2023-02-24T05:05:02.121Z,1001.11
2023-02-24T05:06:02.610Z,1001.10
2023-02-24T05:07:02.982Z,1001.14
2023-02-24T05:08:02.742Z,1001.13
2023-02-24T05:09:02.651Z,1001.13
2023-02-24T05:10:02.978Z,1001.15
2023-02-24T05:11:03.092Z,1001.18
2023-02-24T05:12:02.119Z,1001.13
2023-02-24T05:13:02.564Z,1001.11
2023-02-24T05:14:02.134Z,1001.14
2023-02-24T05:15:01.939Z,1001.12
2023-02-24T05:16:02.458Z,1001.07
2023-02-24T05:17:02.793Z,1001.11
2023-02-24T05:18:02.342Z,1001.10
2023-02-24T05:19:02.379Z,1001.07
2023-02-24T05:20:02.807Z,1001.11
2023-02-24T05:21:02.273Z,1001.09
2023-02-24T05:22:02.695Z,1001.01
2023-02-24T05:23:02.603Z,1001.05
2023-02-24T05:24:02.811Z,1001.04
2023-02-24T05:25:02.827Z,1001.02
2023-02-24T05:26:02.413Z,1001.00
2023-02-24T05:27:02.457Z,1001.00
2023-02-24T05:28:02.564Z,1001.00
2023-02-24T05:29:02.389Z,1000.99
2023-02-24T05:30:02.556Z,1001.01
2023-02-24T05:31:02.405Z,1001.00
2023-02-24T05:32:02.781Z,1001.01
2023-02-24T05:33:02.373Z,1001.04
2023-02-24T05:34:02.448Z,1000.96
2023-02-24T05:35:02.724Z,1000.95
2023-02-24T05:36:02.305Z,1000.98
2023-02-24T05:37:01.873Z,1000.99
2023-02-24T05:38:02.279Z,1000.98
2023-02-24T05:39:01.743Z,1000.97
2023-02-24T05:40:01.759Z,1000.92
2023-02-24T05:41:02.150Z,1000.94
2023-02-24T05:42:02.178Z,1000.99
2023-02-24T05:43:01.955Z,1000.96
2023-02-24T05:44:01.879Z,1000.96
2023-02-24T05:45:01.798Z,1000.93
2023-02-24T05:46:01.871Z,1000.98
2023-02-24T05:47:02.727Z,1001.01
2023-02-24T05:48:02.343Z,1000.96
2023-02-24T05:49:02.635Z,1000.95
2023-02-24T05:50:02.705Z,1000.92
2023-02-24T05:51:05.043Z,1000.88
2023-02-24T05:52:02.785Z,1000.87
2023-02-24T05:53:02.963Z,1000.89
2023-02-24T05:54:03.021Z,1000.84
2023-02-24T05:55:02.563Z,1000.83
2023-02-24T05:56:02.570Z,1000.86
2023-02-24T05:57:02.212Z,1000.79
2023-02-24T05:58:01.840Z,1000.77
2023-02-24T05:59:01.866Z,1000.76
2023-02-24T06:00:01.921Z,1000.75
2023-02-24T06:01:02.315Z,1000.75
2023-02-24T06:02:03.333Z,1000.81
2023-02-24T06:03:03.361Z,1000.81
2023-02-24T06:04:03.144Z,1000.83
2023-02-24T06:05:02.920Z,1000.82
2023-02-24T06:06:03.426Z,1000.81
2023-02-24T06:07:02.897Z,1000.80
2023-02-24T06:08:03.011Z,1000.85
2023-02-24T06:09:02.627Z,1000.85
2023-02-24T06:10:02.581Z,1000.82
2023-02-24T06:11:02.487Z,1000.79
2023-02-24T06:12:03.168Z,1000.77
2023-02-24T06:13:03.453Z,1000.73
2023-02-24T06:14:03.278Z,1000.77
2023-02-24T06:15:03.416Z,1000.84
2023-02-24T06:16:02.989Z,1000.90
2023-02-24T06:17:02.717Z,1000.86
2023-02-24T06:18:02.890Z,1000.83
2023-02-24T06:19:02.985Z,1000.86
2023-02-24T06:20:02.907Z,1000.81
2023-02-24T06:21:02.667Z,1000.85
2023-02-24T06:22:03.365Z,1000.83
2023-02-24T06:23:03.286Z,1000.83
2023-02-24T06:24:03.006Z,1000.75
2023-02-24T06:25:03.539Z,1000.84
2023-02-24T06:26:03.144Z,1000.79
2023-02-24T06:27:02.247Z,1000.80
2023-02-24T06:28:02.247Z,1000.76
2023-02-24T06:29:02.246Z,1000.73
2023-02-24T06:30:02.339Z,1000.68
2023-02-24T06:31:02.601Z,1000.75
2023-02-24T06:32:02.838Z,1000.71
2023-02-24T06:33:02.773Z,1000.75
2023-02-24T06:34:02.787Z,1000.75
2023-02-24T06:35:02.623Z,1000.62
2023-02-24T06:36:02.618Z,1000.63
2023-02-24T06:37:02.996Z,1000.71
2023-02-24T06:38:02.930Z,1000.68
2023-02-24T06:39:03.018Z,1000.65
2023-02-24T06:40:02.734Z,1000.67
2023-02-24T06:41:02.674Z,1000.66
2023-02-24T06:42:03.217Z,1000.61
2023-02-24T06:43:02.890Z,1000.63
2023-02-24T06:44:02.786Z,1000.63
2023-02-24T06:45:03.188Z,1000.65
2023-02-24T06:46:03.567Z,1000.65
2023-02-24T06:47:02.557Z,1000.58
2023-02-24T06:48:02.706Z,1000.63
2023-02-24T06:49:02.531Z,1000.58
2023-02-24T06:50:02.430Z,1000.63
2023-02-24T06:51:02.475Z,1000.57
2023-02-24T06:52:03.132Z,1000.61
2023-02-24T06:53:03.326Z,1000.56
2023-02-24T06:54:03.606Z,1000.50
2023-02-24T06:55:03.605Z,1000.53
2023-02-24T06:56:03.525Z,1000.56
2023-02-24T06:57:02.788Z,1000.52
2023-02-24T06:58:03.149Z,1000.55
2023-02-24T06:59:02.477Z,1000.50
2023-02-24T07:00:02.751Z,1000.52
2023-02-24T07:01:02.804Z,1000.59
2023-02-24T07:02:02.336Z,1000.58
2023-02-24T07:03:02.254Z,1000.52
2023-02-24T07:04:02.111Z,1000.54
2023-02-24T07:05:01.857Z,1000.54
2023-02-24T07:06:02.023Z,1000.57
2023-02-24T07:07:02.592Z,1000.51
2023-02-24T07:08:02.370Z,1000.58
2023-02-24T07:09:02.800Z,1000.56
2023-02-24T07:10:02.440Z,1000.58
2023-02-24T07:11:02.413Z,1000.55
2023-02-24T07:12:02.929Z,1000.57
2023-02-24T07:13:03.012Z,1000.60
2023-02-24T07:14:03.068Z,1000.57
2023-02-24T07:15:02.925Z,1000.53
2023-02-24T07:16:02.753Z,1000.51
2023-02-24T07:17:02.426Z,1000.51
2023-02-24T07:18:02.659Z,1000.56
2023-02-24T07:19:02.252Z,1000.53
2023-02-24T07:20:02.338Z,1000.57
2023-02-24T07:21:02.878Z,1000.55
2023-02-24T07:22:02.830Z,1000.53
2023-02-24T07:23:02.770Z,1000.53
2023-02-24T07:24:02.193Z,1000.49
2023-02-24T07:25:02.272Z,1000.46
2023-02-24T07:26:02.307Z,1000.46
2023-02-24T07:27:02.145Z,1000.42
2023-02-24T07:28:01.891Z,1000.46
2023-02-24T07:29:01.688Z,1000.39
2023-02-24T07:30:01.633Z,1000.37
2023-02-24T07:31:01.724Z,1000.42
2023-02-24T07:32:02.644Z,1000.39
2023-02-24T07:33:02.459Z,1000.42
2023-02-24T07:34:01.830Z,1000.40
2023-02-24T07:35:02.095Z,1000.42
2023-02-24T07:36:02.264Z,1000.39
2023-02-24T07:37:02.087Z,1000.38
2023-02-24T07:38:02.528Z,1000.36
2023-02-24T07:39:02.061Z,1000.38
2023-02-24T07:40:02.275Z,1000.35
2023-02-24T07:41:02.445Z,1000.42
2023-02-24T07:42:02.200Z,1000.41
2023-02-24T07:43:02.469Z,1000.39
2023-02-24T07:44:02.643Z,1000.38
2023-02-24T07:45:02.592Z,1000.43
2023-02-24T07:46:02.343Z,1000.38
2023-02-24T07:47:02.387Z,1000.37
2023-02-24T07:48:02.885Z,1000.30
2023-02-24T07:49:02.432Z,1000.35
2023-02-24T07:50:02.837Z,1000.34
2023-02-24T07:51:02.538Z,1000.39
2023-02-24T07:52:01.896Z,1000.20
2023-02-24T07:53:01.402Z,1000.21
2023-02-24T07:54:01.401Z,1000.21
2023-02-24T07:55:01.715Z,1000.19
2023-02-24T07:56:02.028Z,1000.19
2023-02-24T07:57:01.742Z,1000.16
2023-02-24T07:58:01.535Z,1000.20
2023-02-24T07:59:01.789Z,1000.16
2023-02-24T08:00:02.042Z,1000.10
2023-02-24T08:01:02.027Z,1000.11
2023-02-24T08:02:03.073Z,1000.11
2023-02-24T08:03:02.526Z,1000.17
2023-02-24T08:04:03.004Z,1000.13
2023-02-24T08:05:03.024Z,1000.13
2023-02-24T08:06:03.093Z,1000.13
2023-02-24T08:07:03.207Z,1000.12
2023-02-24T08:08:02.734Z,1000.06
2023-02-24T08:09:02.687Z,1000.05
2023-02-24T08:10:02.584Z,1000.09
2023-02-24T08:11:02.702Z,1000.08
2023-02-24T08:12:02.569Z,1000.04
2023-02-24T08:13:02.333Z,1000.03
2023-02-24T08:14:02.329Z,1000.03
2023-02-24T08:15:02.590Z,1000.00
2023-02-24T08:16:02.696Z,999.96
2023-02-24T08:17:02.243Z,999.98
2023-02-24T08:18:02.147Z,999.89
2023-02-24T08:19:02.162Z,999.90
2023-02-24T08:20:02.277Z,999.86
2023-02-24T08:21:02.093Z,999.91
2023-02-24T08:22:02.213Z,999.86
2023-02-24T08:23:02.879Z,999.82
2023-02-24T08:24:02.487Z,999.78
2023-02-24T08:25:02.310Z,999.77
2023-02-24T08:26:02.768Z,999.72
2023-02-24T08:27:02.815Z,999.71
2023-02-24T08:28:08.075Z,999.74
2023-02-24T08:29:02.858Z,999.70
2023-02-24T08:30:02.865Z,999.70
2023-02-24T08:31:02.559Z,999.67
2023-02-24T08:32:02.288Z,999.67
2023-02-24T08:33:01.834Z,999.65
2023-02-24T08:34:02.398Z,999.65
2023-02-24T08:35:02.242Z,999.58
2023-02-24T08:36:02.766Z,999.60
2023-02-24T08:37:02.560Z,999.62
2023-02-24T08:38:02.542Z,999.55
2023-02-24T08:39:02.393Z,999.55
2023-02-24T08:40:02.415Z,999.48
2023-02-24T08:41:02.826Z,999.55
2023-02-24T08:42:02.356Z,999.50
2023-02-24T08:43:02.535Z,999.49
2023-02-24T08:44:02.840Z,999.52
2023-02-24T08:45:02.420Z,999.47
2023-02-24T08:46:02.396Z,999.42
2023-02-24T08:47:02.491Z,999.47
2023-02-24T08:48:02.041Z,999.44
2023-02-24T08:49:02.385Z,999.40
2023-02-24T08:50:01.937Z,999.38
2023-02-24T08:51:02.366Z,999.35
2023-02-24T08:52:02.663Z,999.33
2023-02-24T08:53:02.537Z,999.41
2023-02-24T08:54:02.422Z,999.39
2023-02-24T08:55:02.264Z,999.34
2023-02-24T08:56:02.848Z,999.29
2023-02-24T08:57:03.237Z,999.32
2023-02-24T08:58:02.907Z,999.28
2023-02-24T08:59:02.464Z,999.26
2023-02-24T09:00:02.952Z,999.26
2023-02-24T09:01:02.645Z,999.22
2023-02-24T09:02:04.989Z,999.20
2023-02-24T09:03:02.483Z,999.26
2023-02-24T09:04:02.593Z,999.21
2023-02-24T09:05:02.151Z,999.16
2023-02-24T09:06:02.402Z,999.16
2023-02-24T09:07:11.274Z,999.17
2023-02-24T09:08:02.472Z,999.13
2023-02-24T09:09:02.310Z,999.14
2023-02-24T09:10:02.188Z,999.13
2023-02-24T09:11:02.728Z,999.13
2023-02-24T09:12:02.672Z,999.06
2023-02-24T09:13:02.772Z,999.04
2023-02-24T09:14:02.205Z,999.02
2023-02-24T09:15:02.275Z,999.00
2023-02-24T09:16:02.567Z,998.96
2023-02-24T09:17:02.859Z,999.01
2023-02-24T09:18:02.705Z,998.97
2023-02-24T09:19:02.576Z,998.97
2023-02-24T09:20:02.825Z,998.99
2023-02-24T09:21:02.588Z,999.04
2023-02-24T09:22:05.931Z,998.97
2023-02-24T09:23:02.821Z,998.95
2023-02-24T09:24:03.011Z,998.98
2023-02-24T09:25:02.541Z,998.95
2023-02-24T09:26:02.939Z,998.99
2023-02-24T09:27:03.149Z,998.98
2023-02-24T09:28:02.564Z,998.94
2023-02-24T09:29:02.612Z,998.92
2023-02-24T09:30:02.767Z,998.93
2023-02-24T09:31:02.527Z,998.89
2023-02-24T09:32:02.239Z,998.87
2023-02-24T09:33:02.399Z,998.95
2023-02-24T09:34:02.351Z,998.90
2023-02-24T09:35:02.262Z,998.89
2023-02-24T09:36:02.275Z,998.88
2023-02-24T09:37:02.632Z,998.92
2023-02-24T09:38:02.153Z,998.85
2023-02-24T09:39:02.458Z,998.83
2023-02-24T09:40:02.343Z,998.84
2023-02-24T09:41:13.788Z,998.81
2023-02-24T09:42:02.341Z,998.83
2023-02-24T09:43:02.016Z,998.79
2023-02-24T09:44:02.053Z,998.81
2023-02-24T09:45:02.016Z,998.84
2023-02-24T09:46:02.720Z,998.80
2023-02-24T09:47:02.965Z,998.84
2023-02-24T09:48:02.701Z,998.84
2023-02-24T09:49:03.170Z,998.83
2023-02-24T09:50:02.598Z,998.85
2023-02-24T09:51:04.756Z,998.80
2023-02-24T09:52:02.386Z,998.79
2023-02-24T09:53:10.760Z,998.86
2023-02-24T09:54:02.491Z,998.84
2023-02-24T09:55:02.173Z,998.83
2023-02-24T09:56:02.148Z,998.79
2023-02-24T09:57:02.758Z,998.74
2023-02-24T09:58:02.544Z,998.70
2023-02-24T09:59:02.580Z,998.74
2023-02-24T10:00:02.746Z,998.72
2023-02-24T10:01:02.565Z,998.73
2023-02-24T10:02:02.610Z,998.71
2023-02-24T10:03:02.495Z,998.69
2023-02-24T10:04:06.218Z,998.70
2023-02-24T10:05:02.031Z,998.67
2023-02-24T10:06:02.232Z,998.69
2023-02-24T10:07:02.437Z,998.68
2023-02-24T10:08:02.180Z,998.70
2023-02-24T10:09:02.120Z,998.67
2023-02-24T10:10:02.697Z,998.70
2023-02-24T10:11:02.702Z,998.61
2023-02-24T10:12:01.731Z,998.59
2023-02-24T10:13:01.602Z,998.63
2023-02-24T10:14:04.655Z,998.64
2023-02-24T10:15:01.639Z,998.52
2023-02-24T10:17:02.137Z,998.56
2023-02-24T10:18:02.185Z,998.54
2023-02-24T10:19:01.912Z,998.51
2023-02-24T10:20:02.242Z,998.51
2023-02-24T10:21:02.241Z,998.45
2023-02-24T10:22:01.974Z,998.45
2023-02-24T10:23:01.589Z,998.43
2023-02-24T10:24:02.282Z,998.35
2023-02-24T10:25:01.741Z,998.38
2023-02-24T10:26:06.660Z,998.37
2023-02-24T10:28:02.020Z,998.37
2023-02-24T10:29:02.228Z,998.36
2023-02-24T10:30:02.143Z,998.29
2023-02-24T10:31:02.267Z,998.30
2023-02-24T10:32:02.865Z,998.29
2023-02-24T10:33:02.480Z,998.27
2023-02-24T10:34:02.439Z,998.29
2023-02-24T10:35:02.259Z,998.28
2023-02-24T10:36:02.433Z,998.21
2023-02-24T10:37:02.369Z,998.18
2023-02-24T10:38:02.559Z,998.23
2023-02-24T10:39:02.370Z,998.28
2023-02-24T10:40:02.600Z,998.22
2023-02-24T10:41:02.641Z,998.24
2023-02-24T10:42:02.306Z,998.19
2023-02-24T10:43:02.352Z,998.14
2023-02-24T10:44:02.327Z,998.16
2023-02-24T10:45:03.105Z,998.19
2023-02-24T10:46:02.190Z,998.08
2023-02-24T10:47:02.580Z,998.14
2023-02-24T10:48:02.128Z,998.13
2023-02-24T10:49:02.717Z,998.16
2023-02-24T10:50:02.667Z,998.17
2023-02-24T10:51:02.333Z,998.17
2023-02-24T10:52:01.827Z,998.18
2023-02-24T10:53:02.075Z,998.17
2023-02-24T10:54:01.622Z,998.09
2023-02-24T10:55:01.936Z,998.09
2023-02-24T10:56:02.134Z,998.02
2023-02-24T10:57:02.205Z,998.01
2023-02-24T10:58:02.334Z,998.02
2023-02-24T10:59:02.236Z,998.04
2023-02-24T11:00:02.383Z,998.02
2023-02-24T11:01:02.152Z,997.96
2023-02-24T11:02:02.604Z,997.94
2023-02-24T11:03:02.578Z,997.91
2023-02-24T11:04:02.915Z,997.92
2023-02-24T11:05:02.752Z,997.92
2023-02-24T11:06:02.584Z,997.84
2023-02-24T11:07:02.629Z,997.85
2023-02-24T11:08:02.504Z,997.90
2023-02-24T11:09:02.831Z,997.82
2023-02-24T11:10:02.779Z,997.75
2023-02-24T11:11:02.715Z,997.78
2023-02-24T11:12:03.306Z,997.76
2023-02-24T11:13:09.402Z,997.74
2023-02-24T11:14:03.484Z,997.78
2023-02-24T11:15:03.428Z,997.69
2023-02-24T11:16:03.057Z,997.74
2023-02-24T11:17:02.571Z,997.67
2023-02-24T11:18:02.421Z,997.63
2023-02-24T11:19:02.578Z,997.71
2023-02-24T11:20:02.770Z,997.65
2023-02-24T11:21:02.413Z,997.63
2023-02-24T11:22:02.721Z,997.57
2023-02-24T11:23:03.276Z,997.56
2023-02-24T11:24:02.992Z,997.54
2023-02-24T11:25:03.280Z,997.54
2023-02-24T11:26:02.897Z,997.46
2023-02-24T11:27:04.397Z,997.42
2023-02-24T11:28:02.705Z,997.43
2023-02-24T11:29:02.168Z,997.42
2023-02-24T11:30:02.687Z,997.44
2023-02-24T11:31:02.519Z,997.41
2023-02-24T11:32:03.151Z,997.46
2023-02-24T11:33:02.678Z,997.41
2023-02-24T11:34:02.618Z,997.42
2023-02-24T11:35:02.985Z,997.43
2023-02-24T11:36:02.821Z,997.41
2023-02-24T11:37:03.089Z,997.38
2023-02-24T11:38:02.973Z,997.40
2023-02-24T11:39:17.137Z,997.33
2023-02-24T11:40:03.076Z,997.37
2023-02-24T11:41:02.829Z,997.26
2023-02-24T11:42:02.764Z,997.29
2023-02-24T11:43:02.454Z,997.29
2023-02-24T11:44:02.180Z,997.28
2023-02-24T11:45:02.262Z,997.27
2023-02-24T11:46:02.304Z,997.28
2023-02-24T11:47:02.980Z,997.24
2023-02-24T11:48:02.581Z,997.25
2023-02-24T11:49:03.114Z,997.27
2023-02-24T11:50:04.954Z,997.25
2023-02-24T11:51:02.890Z,997.20
2023-02-24T11:52:03.220Z,997.22
2023-02-24T11:53:03.053Z,997.15
2023-02-24T11:54:02.857Z,997.11
2023-02-24T11:55:03.275Z,997.14
2023-02-24T11:56:02.913Z,997.08
2023-02-24T11:57:02.592Z,997.12
2023-02-24T11:58:02.452Z,997.14
2023-02-24T11:59:02.266Z,997.12
2023-02-24T12:00:02.880Z,997.05
2023-02-24T12:01:02.675Z,997.01
2023-02-24T12:02:02.707Z,997.03
2023-02-24T12:03:04.156Z,997.00
2023-02-24T12:04:02.465Z,997.00
2023-02-24T12:05:02.866Z,996.91
2023-02-24T12:06:02.679Z,996.91
2023-02-24T12:07:02.923Z,996.90
2023-02-24T12:08:02.447Z,996.87
2023-02-24T12:09:02.630Z,996.88
2023-02-24T12:10:14.436Z,996.84
2023-02-24T12:11:02.466Z,996.79
2023-02-24T12:12:02.320Z,996.79
2023-02-24T12:13:02.361Z,996.75
2023-02-24T12:14:02.065Z,996.73
2023-02-24T12:15:02.063Z,996.74